createdAt,value
2018-02-03T00:00:56.052Z,6.50
2018-02-03T00:01:57.175Z,6.50
2018-02-03T00:02:58.273Z,6.40
2018-02-03T00:03:59.365Z,6.40
2018-02-03T00:05:00.490Z,6.40
2018-02-03T00:06:01.604Z,6.40
2018-02-03T00:07:02.727Z,6.40
2018-02-03T00:08:03.828Z,6.40
2018-02-03T00:09:04.927Z,6.30
2018-02-03T00:10:06.015Z,6.30
2018-02-03T00:11:07.135Z,6.40
2018-02-03T00:12:08.987Z,6.30
2018-02-03T00:13:10.104Z,6.30
2018-02-03T00:14:11.197Z,6.30
2018-02-03T00:15:12.287Z,6.30
2018-02-03T00:16:14.122Z,6.30
2018-02-03T00:17:15.252Z,6.30
2018-02-03T00:18:16.339Z,6.30
2018-02-03T00:19:18.015Z,6.40
2018-02-03T00:20:19.101Z,6.40
2018-02-03T00:21:20.196Z,6.40
2018-02-03T00:22:21.313Z,6.40
2018-02-03T00:23:22.432Z,6.40
2018-02-03T00:24:23.539Z,6.40
2018-02-03T00:25:24.659Z,6.40
2018-02-03T00:26:25.843Z,6.40
2018-02-03T00:27:26.980Z,6.30
2018-02-03T00:28:28.073Z,6.40
2018-02-03T00:29:29.184Z,6.40
2018-02-03T00:30:31.016Z,6.40
2018-02-03T00:31:32.146Z,6.40
2018-02-03T00:32:33.267Z,6.40
2018-02-03T00:33:34.430Z,6.50
2018-02-03T00:34:35.576Z,6.40
2018-02-03T00:35:36.695Z,6.30
2018-02-03T00:36:38.540Z,6.30
2018-02-03T00:37:40.409Z,6.30
2018-02-03T00:38:41.516Z,6.30
2018-02-03T00:39:42.636Z,6.30
2018-02-03T00:40:43.744Z,6.20
2018-02-03T00:41:44.859Z,6.20
2018-02-03T00:42:45.950Z,6.20
2018-02-03T00:43:47.050Z,6.30
2018-02-03T00:44:48.119Z,6.30
2018-02-03T00:45:49.977Z,6.30
2018-02-03T00:46:51.869Z,6.30
2018-02-03T00:47:52.971Z,6.30
2018-02-03T00:48:54.084Z,6.30
2018-02-03T00:49:55.940Z,6.30
2018-02-03T00:50:57.787Z,6.30
2018-02-03T00:51:59.685Z,6.30
2018-02-03T00:53:00.815Z,6.30
2018-02-03T00:54:01.915Z,6.30
2018-02-03T00:55:03.030Z,6.40
2018-02-03T00:56:04.130Z,6.30
2018-02-03T00:57:05.241Z,6.30
2018-02-03T00:58:06.354Z,6.30
2018-02-03T00:59:08.212Z,6.30
2018-02-03T01:00:09.327Z,6.20
2018-02-03T01:01:10.463Z,6.30
2018-02-03T01:02:11.593Z,6.30
2018-02-03T01:03:12.707Z,6.30
2018-02-03T01:04:13.823Z,6.30
2018-02-03T01:05:14.951Z,6.30
2018-02-03T01:06:16.065Z,6.30
2018-02-03T01:07:17.179Z,6.20
2018-02-03T01:08:18.290Z,6.20
2018-02-03T01:09:20.140Z,6.20
2018-02-03T01:10:21.247Z,6.20
2018-02-03T01:11:22.341Z,6.20
2018-02-03T01:12:23.452Z,6.20
2018-02-03T01:13:24.571Z,6.20
2018-02-03T01:14:25.711Z,6.20
2018-02-03T01:15:27.543Z,6.10
2018-02-03T01:16:28.643Z,6.10
2018-02-03T01:17:29.753Z,6.10
2018-02-03T01:18:30.840Z,6.10
2018-02-03T01:19:32.704Z,6.00
2018-02-03T01:20:33.832Z,6.00
2018-02-03T01:21:34.924Z,6.00
2018-02-03T01:22:36.085Z,5.90
2018-02-03T01:23:37.182Z,5.90
2018-02-03T01:24:38.288Z,5.90
2018-02-03T01:25:39.403Z,5.90
2018-02-03T01:26:41.259Z,5.80
2018-02-03T01:27:42.414Z,5.80
2018-02-03T01:28:43.531Z,5.80
2018-02-03T01:29:44.681Z,5.80
2018-02-03T01:30:45.775Z,5.80
2018-02-03T01:31:46.874Z,5.80
2018-02-03T01:32:48.000Z,5.80
2018-02-03T01:33:49.108Z,5.80
2018-02-03T01:34:50.259Z,5.80
2018-02-03T01:35:51.357Z,5.80
2018-02-03T01:36:53.199Z,5.90
2018-02-03T01:37:55.045Z,6.00
2018-02-03T01:38:57.082Z,6.00
2018-02-03T01:39:58.179Z,6.00
2018-02-03T01:40:59.270Z,6.00
2018-02-03T01:42:00.383Z,6.10
2018-02-03T01:43:01.495Z,6.10
2018-02-03T01:44:02.636Z,6.10
2018-02-03T01:45:03.745Z,6.20
2018-02-03T01:46:04.888Z,6.20
2018-02-03T01:47:05.975Z,6.30
2018-02-03T01:48:07.126Z,6.30
2018-02-03T01:49:08.234Z,6.30
2018-02-03T01:50:09.326Z,6.40
2018-02-03T01:51:10.444Z,6.40
2018-02-03T01:52:11.567Z,6.40
2018-02-03T01:53:13.411Z,6.40
2018-02-03T01:54:14.507Z,6.40
2018-02-03T01:55:15.611Z,6.40
2018-02-03T01:56:16.691Z,6.40
2018-02-03T01:57:17.800Z,6.40
2018-02-03T01:58:18.942Z,6.40
2018-02-03T01:59:20.034Z,6.40
2018-02-03T02:00:21.139Z,6.40
2018-02-03T02:01:22.276Z,6.50
2018-02-03T02:02:23.371Z,6.40
2018-02-03T02:03:24.482Z,6.40
2018-02-03T02:04:25.600Z,6.40
2018-02-03T02:05:26.704Z,6.40
2018-02-03T02:06:27.802Z,6.40
2018-02-03T02:07:28.892Z,6.40
2018-02-03T02:08:29.996Z,6.40
2018-02-03T02:09:31.101Z,6.40
2018-02-03T02:10:32.191Z,6.30
2018-02-03T02:11:33.295Z,6.30
2018-02-03T02:12:34.395Z,6.30
2018-02-03T02:13:36.239Z,6.30
2018-02-03T02:14:37.347Z,6.30
2018-02-03T02:15:38.451Z,6.30
2018-02-03T02:16:39.565Z,6.40
2018-02-03T02:17:40.663Z,6.40
2018-02-03T02:18:41.751Z,6.40
2018-02-03T02:19:42.842Z,6.40
2018-02-03T02:20:43.948Z,6.40
2018-02-03T02:21:45.067Z,6.40
2018-02-03T02:22:46.899Z,6.50
2018-02-03T02:23:48.015Z,6.50
2018-02-03T02:24:49.843Z,6.50
2018-02-03T02:25:51.690Z,6.50
2018-02-03T02:26:52.774Z,6.50
2018-02-03T02:27:53.899Z,6.50
2018-02-03T02:28:55.027Z,6.50
2018-02-03T02:29:56.170Z,6.50
2018-02-03T02:30:57.284Z,6.50
2018-02-03T02:31:58.364Z,6.60
2018-02-03T02:32:59.472Z,6.60
2018-02-03T02:34:00.579Z,6.60
2018-02-03T02:35:02.435Z,6.60
2018-02-03T02:36:03.549Z,6.60
2018-02-03T02:37:05.396Z,6.60
2018-02-03T02:38:07.245Z,6.60
2018-02-03T02:39:09.093Z,6.60
2018-02-03T02:40:10.211Z,6.60
2018-02-03T02:41:11.319Z,6.60
2018-02-03T02:42:12.402Z,6.60
2018-02-03T02:43:14.271Z,6.50
2018-02-03T02:44:15.399Z,6.50
2018-02-03T02:45:16.498Z,6.50
2018-02-03T02:46:17.608Z,6.50
2018-02-03T02:47:18.707Z,6.50
2018-02-03T02:48:19.819Z,6.50
2018-02-03T02:49:21.663Z,6.50
2018-02-03T02:50:23.017Z,6.50
2018-02-03T02:51:24.154Z,6.50
2018-02-03T02:52:25.287Z,6.50
2018-02-03T02:53:26.403Z,6.50
2018-02-03T02:54:28.254Z,6.50
2018-02-03T02:55:30.116Z,6.40
2018-02-03T02:56:31.950Z,6.30
2018-02-03T02:57:33.802Z,6.30
2018-02-03T02:58:34.908Z,6.30
2018-02-03T02:59:36.023Z,6.30
2018-02-03T03:00:37.127Z,6.30
2018-02-03T03:01:38.235Z,6.30
2018-02-03T03:02:40.071Z,6.30
2018-02-03T03:03:41.162Z,6.30
2018-02-03T03:04:42.284Z,6.30
2018-02-03T03:05:43.385Z,6.30
2018-02-03T03:06:45.253Z,6.40
2018-02-03T03:07:46.326Z,6.40
2018-02-03T03:08:47.422Z,6.40
2018-02-03T03:09:48.535Z,6.40
2018-02-03T03:10:49.639Z,6.40
2018-02-03T03:11:50.719Z,6.40
2018-02-03T03:12:51.833Z,6.50
2018-02-03T03:13:52.944Z,6.50
2018-02-03T03:14:54.047Z,6.50
2018-02-03T03:15:55.124Z,6.50
2018-02-03T03:16:56.242Z,6.50
2018-02-03T03:17:57.343Z,6.50
2018-02-03T03:18:58.440Z,6.50
2018-02-03T03:20:00.275Z,6.50
2018-02-03T03:21:01.387Z,6.50
2018-02-03T03:22:02.491Z,6.50
2018-02-03T03:23:03.594Z,6.50
2018-02-03T03:24:04.700Z,6.60
2018-02-03T03:25:06.553Z,6.60
2018-02-03T03:26:07.666Z,6.60
2018-02-03T03:27:09.543Z,6.60
2018-02-03T03:28:10.639Z,6.60
2018-02-03T03:29:11.726Z,6.60
2018-02-03T03:30:12.855Z,6.60
2018-02-03T03:31:13.944Z,6.60
2018-02-03T03:32:15.041Z,6.50
2018-02-03T03:33:16.139Z,6.60
2018-02-03T03:34:17.962Z,6.50
2018-02-03T03:35:19.042Z,6.50
2018-02-03T03:36:20.148Z,6.50
2018-02-03T03:37:21.975Z,6.40
2018-02-03T03:38:23.087Z,6.40
2018-02-03T03:39:24.191Z,6.30
2018-02-03T03:40:25.301Z,6.30
2018-02-03T03:41:27.147Z,6.30
2018-02-03T03:42:28.249Z,6.30
2018-02-03T03:43:29.343Z,6.20
2018-02-03T03:44:30.422Z,6.20
2018-02-03T03:45:31.522Z,6.20
2018-02-03T03:46:32.616Z,6.20
2018-02-03T03:47:33.714Z,6.20
2018-02-03T03:48:34.816Z,6.20
2018-02-03T03:49:35.912Z,6.10
2018-02-03T03:50:37.012Z,6.10
2018-02-03T03:51:38.102Z,6.10
2018-02-03T03:52:39.194Z,6.10
2018-02-03T03:53:40.294Z,6.10
2018-02-03T03:54:41.411Z,6.10
2018-02-03T03:55:43.290Z,6.10
2018-02-03T03:56:44.390Z,6.10
2018-02-03T03:57:45.509Z,6.00
2018-02-03T03:58:46.624Z,6.00
2018-02-03T03:59:47.753Z,6.00
2018-02-03T04:00:49.623Z,6.10
2018-02-03T04:01:50.746Z,6.10
2018-02-03T04:02:51.882Z,6.10
2018-02-03T04:03:52.998Z,6.10
2018-02-03T04:04:54.119Z,6.10
2018-02-03T04:05:55.211Z,6.10
2018-02-03T04:06:56.310Z,6.10
2018-02-03T04:07:58.169Z,6.10
2018-02-03T04:08:59.286Z,6.10
2018-02-03T04:10:00.399Z,6.10
2018-02-03T04:11:01.492Z,6.10
2018-02-03T04:12:02.603Z,6.10
2018-02-03T04:13:03.717Z,6.20
2018-02-03T04:14:05.548Z,6.20
2018-02-03T04:15:06.661Z,6.10
2018-02-03T04:16:07.767Z,6.20
2018-02-03T04:17:08.860Z,6.20
2018-02-03T04:18:09.955Z,6.20
2018-02-03T04:19:11.083Z,6.20
2018-02-03T04:20:12.164Z,6.20
2018-02-03T04:21:13.272Z,6.20
2018-02-03T04:22:14.378Z,6.20
2018-02-03T04:23:15.469Z,6.20
2018-02-03T04:24:17.310Z,6.20
2018-02-03T04:25:19.147Z,6.30
2018-02-03T04:26:20.251Z,6.20
2018-02-03T04:27:21.333Z,6.30
2018-02-03T04:28:22.448Z,6.30
2018-02-03T04:29:23.558Z,6.30
2018-02-03T04:30:24.677Z,6.30
2018-02-03T04:31:25.762Z,6.40
2018-02-03T04:32:26.859Z,6.40
2018-02-03T04:33:27.947Z,6.40
2018-02-03T04:34:29.027Z,6.40
2018-02-03T04:35:30.111Z,6.50
2018-02-03T04:36:31.189Z,6.50
2018-02-03T04:37:32.266Z,6.50
2018-02-03T04:38:33.396Z,6.60
2018-02-03T04:39:34.512Z,6.60
2018-02-03T04:40:35.605Z,6.70
2018-02-03T04:41:36.727Z,6.60
2018-02-03T04:42:37.832Z,6.60
2018-02-03T04:43:38.953Z,6.60
2018-02-03T04:44:40.818Z,6.70
2018-02-03T04:45:41.928Z,6.70
2018-02-03T04:46:43.039Z,6.70
2018-02-03T04:47:44.163Z,6.70
2018-02-03T04:48:45.344Z,6.70
2018-02-03T04:49:46.438Z,6.70
2018-02-03T04:50:47.524Z,6.60
2018-02-03T04:51:48.639Z,6.70
2018-02-03T04:52:50.459Z,6.70
2018-02-03T04:53:51.570Z,6.70
2018-02-03T04:54:52.651Z,6.70
2018-02-03T04:55:54.475Z,6.70
2018-02-03T04:56:55.581Z,6.70
2018-02-03T04:57:56.660Z,6.70
2018-02-03T04:58:58.499Z,6.60
2018-02-03T04:59:59.595Z,6.60
2018-02-03T05:01:00.711Z,6.60
2018-02-03T05:02:01.804Z,6.60
2018-02-03T05:03:03.638Z,6.50
2018-02-03T05:04:04.747Z,6.50
2018-02-03T05:05:05.886Z,6.60
2018-02-03T05:06:06.983Z,6.40
2018-02-03T05:07:08.085Z,6.40
2018-02-03T05:08:09.197Z,6.30
2018-02-03T05:09:10.283Z,6.30
2018-02-03T05:10:11.389Z,6.30
2018-02-03T05:11:13.215Z,6.30
2018-02-03T05:12:14.324Z,6.30
2018-02-03T05:13:16.182Z,6.20
2018-02-03T05:14:17.275Z,6.20
2018-02-03T05:15:18.384Z,6.20
2018-02-03T05:16:20.241Z,6.20
2018-02-03T05:17:22.114Z,6.20
2018-02-03T05:18:23.214Z,6.10
2018-02-03T05:19:24.322Z,6.20
2018-02-03T05:20:25.411Z,6.20
2018-02-03T05:21:26.508Z,6.20
2018-02-03T05:22:27.606Z,6.20
2018-02-03T05:23:28.708Z,6.20
2018-02-03T05:24:30.378Z,6.10
2018-02-03T05:25:31.494Z,6.10
2018-02-03T05:26:32.592Z,6.20
2018-02-03T05:27:33.683Z,6.20
2018-02-03T05:28:34.755Z,6.20
2018-02-03T05:29:35.856Z,6.10
2018-02-03T05:30:36.945Z,6.10
2018-02-03T05:31:38.962Z,6.10
2018-02-03T05:32:40.076Z,6.20
2018-02-03T05:33:41.172Z,6.10
2018-02-03T05:34:42.280Z,6.20
2018-02-03T05:35:44.110Z,6.10
2018-02-03T05:36:45.230Z,6.10
2018-02-03T05:37:46.346Z,6.10
2018-02-03T05:38:47.447Z,6.00
2018-02-03T05:39:48.561Z,6.00
2018-02-03T05:40:49.670Z,5.90
2018-02-03T05:41:50.782Z,5.90
2018-02-03T05:42:51.916Z,5.90
2018-02-03T05:43:53.030Z,5.90
2018-02-03T05:44:54.144Z,5.90
2018-02-03T05:45:55.251Z,5.90
2018-02-03T05:46:56.391Z,6.00
2018-02-03T05:47:57.527Z,6.10
2018-02-03T05:48:59.396Z,6.10
2018-02-03T05:50:00.481Z,6.00
2018-02-03T05:51:01.659Z,6.10
2018-02-03T05:52:02.763Z,6.10
2018-02-03T05:53:03.895Z,6.10
2018-02-03T05:54:04.971Z,6.10
2018-02-03T05:55:06.052Z,6.10
2018-02-03T05:56:07.166Z,6.10
2018-02-03T05:57:08.279Z,6.10
2018-02-03T05:58:09.390Z,6.10
2018-02-03T05:59:10.499Z,6.10
2018-02-03T06:00:12.348Z,6.10
2018-02-03T06:01:13.442Z,6.10
2018-02-03T06:02:14.536Z,6.10
2018-02-03T06:03:16.389Z,6.20
2018-02-03T06:04:17.483Z,6.20
2018-02-03T06:05:18.566Z,6.20
2018-02-03T06:06:19.670Z,6.20
2018-02-03T06:07:21.527Z,6.10
2018-02-03T06:08:23.371Z,6.10
2018-02-03T06:09:24.459Z,6.00
2018-02-03T06:10:25.566Z,6.10
2018-02-03T06:11:26.647Z,6.10
2018-02-03T06:12:27.759Z,6.10
2018-02-03T06:13:28.857Z,5.90
2018-02-03T06:14:29.943Z,6.00
2018-02-03T06:15:31.060Z,6.00
2018-02-03T06:16:32.203Z,5.90
2018-02-03T06:17:33.300Z,5.90
2018-02-03T06:18:34.407Z,6.00
2018-02-03T06:19:35.535Z,6.00
2018-02-03T06:20:37.405Z,5.90
2018-02-03T06:21:38.523Z,5.90
2018-02-03T06:22:39.641Z,5.90
2018-02-03T06:23:41.470Z,5.90
2018-02-03T06:24:42.698Z,5.90
2018-02-03T06:25:43.799Z,5.90
2018-02-03T06:26:44.906Z,6.00
2018-02-03T06:27:46.749Z,6.00
2018-02-03T06:28:48.574Z,6.10
2018-02-03T06:29:49.661Z,6.00
2018-02-03T06:30:51.496Z,6.10
2018-02-03T06:31:52.582Z,6.10
2018-02-03T06:32:53.694Z,6.10
2018-02-03T06:33:54.799Z,6.20
2018-02-03T06:34:55.891Z,6.10
2018-02-03T06:35:57.013Z,6.10
2018-02-03T06:36:58.107Z,6.10
2018-02-03T06:37:59.202Z,6.20
2018-02-03T06:39:00.319Z,6.20
2018-02-03T06:40:01.445Z,6.20
2018-02-03T06:41:02.539Z,6.30
2018-02-03T06:42:03.641Z,6.20
2018-02-03T06:43:05.503Z,6.20
2018-02-03T06:44:07.334Z,6.20
2018-02-03T06:45:08.434Z,6.20
2018-02-03T06:46:09.531Z,6.20
2018-02-03T06:47:10.651Z,6.20
2018-02-03T06:48:11.751Z,6.20
2018-02-03T06:49:12.858Z,6.30
2018-02-03T06:50:13.963Z,6.30
2018-02-03T06:51:15.063Z,6.20
2018-02-03T06:52:16.899Z,6.20
2018-02-03T06:53:17.991Z,6.20
2018-02-03T06:54:19.080Z,6.20
2018-02-03T06:55:20.934Z,6.30
2018-02-03T06:56:22.017Z,6.20
2018-02-03T06:57:23.124Z,6.30
2018-02-03T06:58:24.229Z,6.30
2018-02-03T06:59:26.068Z,6.30
2018-02-03T07:00:27.195Z,6.30
2018-02-03T07:01:28.323Z,6.30
2018-02-03T07:02:29.418Z,6.20
2018-02-03T07:03:30.521Z,6.30
2018-02-03T07:04:32.363Z,6.20
2018-02-03T07:05:34.199Z,6.30
2018-02-03T07:06:35.311Z,6.20
2018-02-03T07:07:36.383Z,6.30
2018-02-03T07:08:38.255Z,6.30
2018-02-03T07:09:39.363Z,6.20
2018-02-03T07:10:41.190Z,6.30
2018-02-03T07:11:42.279Z,6.30
2018-02-03T07:12:43.395Z,6.30
2018-02-03T07:13:44.511Z,6.30
2018-02-03T07:14:45.652Z,6.30
2018-02-03T07:15:47.499Z,6.30
2018-02-03T07:16:48.602Z,6.30
2018-02-03T07:17:49.719Z,6.30
2018-02-03T07:18:50.835Z,6.30
2018-02-03T07:19:52.693Z,6.30
2018-02-03T07:20:53.796Z,6.40
2018-02-03T07:21:54.903Z,6.40
2018-02-03T07:22:56.015Z,6.40
2018-02-03T07:23:57.139Z,6.40
2018-02-03T07:24:58.283Z,6.30
2018-02-03T07:25:59.402Z,6.30
2018-02-03T07:27:00.498Z,6.30
2018-02-03T07:28:01.605Z,6.30
2018-02-03T07:29:03.462Z,6.20
2018-02-03T07:30:05.308Z,6.20
2018-02-03T07:31:06.410Z,6.20
2018-02-03T07:32:07.496Z,6.20
2018-02-03T07:33:08.651Z,6.10
2018-02-03T07:34:09.772Z,6.10
2018-02-03T07:35:10.883Z,6.10
2018-02-03T07:36:12.726Z,6.20
2018-02-03T07:37:13.831Z,6.20
2018-02-03T07:38:14.927Z,6.20
2018-02-03T07:39:16.040Z,6.20
2018-02-03T07:40:17.139Z,6.20
2018-02-03T07:41:18.248Z,6.20
2018-02-03T07:42:19.419Z,6.20
2018-02-03T07:43:21.259Z,6.20
2018-02-03T07:44:23.431Z,6.20
2018-02-03T07:45:25.267Z,6.20
2018-02-03T07:46:26.370Z,6.20
2018-02-03T07:47:27.476Z,6.20
2018-02-03T07:48:29.308Z,6.30
2018-02-03T07:49:30.426Z,6.30
2018-02-03T07:50:32.270Z,6.30
2018-02-03T07:51:33.370Z,6.30
2018-02-03T07:52:34.523Z,6.30
2018-02-03T07:53:35.618Z,6.40
2018-02-03T07:54:36.765Z,6.40
2018-02-03T07:55:37.855Z,6.40
2018-02-03T07:56:39.744Z,6.40
2018-02-03T07:57:40.836Z,6.40
2018-02-03T07:58:41.948Z,6.40
2018-02-03T07:59:43.110Z,6.40
2018-02-03T08:00:44.208Z,6.50
2018-02-03T08:01:45.365Z,6.50
2018-02-03T08:02:46.451Z,6.50
2018-02-03T08:03:47.548Z,6.50
2018-02-03T08:04:48.671Z,6.60
2018-02-03T08:05:50.470Z,6.60
2018-02-03T08:06:51.564Z,6.60
2018-02-03T08:07:52.646Z,6.60
2018-02-03T08:08:53.739Z,6.60
2018-02-03T08:09:54.938Z,6.60
2018-02-03T08:10:56.229Z,6.60
2018-02-03T08:11:58.210Z,6.60
2018-02-03T08:12:59.435Z,6.60
2018-02-03T08:14:00.543Z,6.60
2018-02-03T08:15:01.707Z,6.60
2018-02-03T08:16:02.968Z,6.50
2018-02-03T08:17:05.036Z,6.60
2018-02-03T08:18:06.170Z,6.60
2018-02-03T08:19:07.320Z,6.40
2018-02-03T08:20:08.535Z,6.60
2018-02-03T08:21:09.638Z,6.70
2018-02-03T08:22:10.736Z,6.70
2018-02-03T08:23:12.864Z,6.70
2018-02-03T08:24:15.019Z,6.70
2018-02-03T08:25:16.114Z,6.60
2018-02-03T08:26:17.256Z,6.80
2018-02-03T08:27:18.360Z,6.80
2018-02-03T08:28:19.484Z,6.70
2018-02-03T08:29:20.607Z,6.80
2018-02-03T08:30:21.693Z,6.80
2018-02-03T08:31:23.552Z,6.70
2018-02-03T08:32:24.648Z,6.70
2018-02-03T08:33:25.735Z,6.80
2018-02-03T08:34:27.630Z,6.80
2018-02-03T08:35:28.742Z,6.80
2018-02-03T08:36:29.864Z,6.80
2018-02-03T08:37:30.997Z,6.80
2018-02-03T08:38:32.100Z,6.90
2018-02-03T08:39:33.187Z,6.90
2018-02-03T08:40:34.284Z,6.90
2018-02-03T08:41:36.115Z,6.90
2018-02-03T08:42:38.931Z,6.90
2018-02-03T08:43:40.050Z,6.90
2018-02-03T08:44:41.138Z,6.90
2018-02-03T08:45:42.244Z,6.90
2018-02-03T08:46:43.355Z,6.90
2018-02-03T08:47:44.426Z,6.80
2018-02-03T08:48:45.609Z,6.80
2018-02-03T08:49:46.708Z,6.80
2018-02-03T08:50:48.617Z,6.80
2018-02-03T08:51:49.736Z,6.80
2018-02-03T08:52:50.895Z,6.80
2018-02-03T08:53:52.032Z,6.80
2018-02-03T08:54:53.122Z,6.80
2018-02-03T08:55:55.359Z,6.80
2018-02-03T08:56:57.255Z,6.80
2018-02-03T08:57:58.405Z,6.80
2018-02-03T08:58:59.549Z,6.80
2018-02-03T09:00:00.717Z,6.80
2018-02-03T09:01:01.796Z,6.80
2018-02-03T09:02:02.908Z,6.80
2018-02-03T09:03:03.979Z,6.60
2018-02-03T09:04:05.169Z,6.80
2018-02-03T09:05:06.305Z,6.90
2018-02-03T09:06:07.443Z,6.90
2018-02-03T09:07:08.559Z,6.90
2018-02-03T09:08:10.389Z,7.00
2018-02-03T09:09:11.485Z,7.00
2018-02-03T09:10:12.575Z,7.00
2018-02-03T09:11:13.714Z,7.00
2018-02-03T09:12:14.814Z,7.10
2018-02-03T09:13:16.648Z,7.10
2018-02-03T09:14:17.745Z,7.10
2018-02-03T09:15:18.856Z,7.00
2018-02-03T09:16:20.704Z,7.00
2018-02-03T09:17:22.538Z,7.00
2018-02-03T09:18:23.635Z,7.00
2018-02-03T09:19:24.772Z,7.00
2018-02-03T09:20:25.863Z,7.10
2018-02-03T09:21:26.966Z,7.00
2018-02-03T09:22:28.052Z,7.10
2018-02-03T09:23:29.152Z,7.10
2018-02-03T09:24:30.254Z,7.10
2018-02-03T09:25:31.361Z,7.10
2018-02-03T09:26:32.560Z,7.20
2018-02-03T09:27:33.869Z,7.20
2018-02-03T09:28:35.002Z,7.20
2018-02-03T09:29:36.177Z,7.20
2018-02-03T09:30:37.255Z,7.30
2018-02-03T09:31:38.368Z,7.20
2018-02-03T09:32:39.466Z,7.20
2018-02-03T09:33:40.594Z,7.20
2018-02-03T09:34:41.691Z,7.10
2018-02-03T09:35:42.788Z,7.20
2018-02-03T09:36:43.918Z,7.30
2018-02-03T09:37:45.064Z,7.30
2018-02-03T09:38:46.146Z,7.30
2018-02-03T09:39:47.247Z,7.30
2018-02-03T09:40:48.346Z,7.30
2018-02-03T09:41:49.455Z,7.30
2018-02-03T09:42:50.563Z,7.30
2018-02-03T09:43:51.645Z,7.30
2018-02-03T09:44:52.751Z,7.30
2018-02-03T09:45:53.863Z,7.30
2018-02-03T09:46:54.960Z,7.30
2018-02-03T09:47:56.055Z,7.30
2018-02-03T09:48:57.150Z,7.30
2018-02-03T09:49:58.278Z,7.30
2018-02-03T09:50:59.390Z,7.50
2018-02-03T09:52:00.499Z,7.30
2018-02-03T09:53:01.623Z,7.30
2018-02-03T09:54:02.742Z,7.30
2018-02-03T09:55:03.851Z,7.30
2018-02-03T09:56:04.947Z,7.30
2018-02-03T09:57:06.059Z,7.20
2018-02-03T09:58:07.183Z,7.20
2018-02-03T09:59:08.288Z,7.20
2018-02-03T10:00:09.408Z,7.20
2018-02-03T10:01:10.515Z,7.20
2018-02-03T10:02:11.620Z,7.30
2018-02-03T10:03:12.710Z,7.30
2018-02-03T10:04:13.802Z,7.30
2018-02-03T10:05:14.895Z,7.40
2018-02-03T10:06:16.015Z,7.40
2018-02-03T10:07:17.118Z,7.40
2018-02-03T10:08:18.218Z,7.50
2018-02-03T10:09:19.326Z,7.50
2018-02-03T10:10:20.439Z,7.50
2018-02-03T10:11:21.544Z,7.50
2018-02-03T10:12:22.667Z,7.50
2018-02-03T10:13:23.757Z,7.60
2018-02-03T10:14:25.595Z,7.60
2018-02-03T10:15:26.701Z,7.50
2018-02-03T10:16:27.808Z,7.50
2018-02-03T10:17:28.923Z,7.40
2018-02-03T10:18:30.019Z,7.40
2018-02-03T10:19:31.111Z,7.30
2018-02-03T10:20:32.207Z,7.30
2018-02-03T10:21:34.071Z,7.30
2018-02-03T10:22:35.169Z,7.30
2018-02-03T10:23:36.281Z,7.30
2018-02-03T10:24:37.382Z,7.50
2018-02-03T10:25:38.469Z,7.40
2018-02-03T10:26:40.310Z,7.50
2018-02-03T10:27:41.441Z,7.50
2018-02-03T10:28:42.539Z,7.50
2018-02-03T10:29:43.656Z,7.50
2018-02-03T10:30:44.736Z,7.60
2018-02-03T10:31:45.814Z,7.60
2018-02-03T10:32:46.902Z,7.60
2018-02-03T10:33:47.994Z,7.50
2018-02-03T10:34:49.083Z,7.40
2018-02-03T10:35:50.172Z,7.40
2018-02-03T10:36:51.264Z,7.30
2018-02-03T10:37:53.093Z,7.20
2018-02-03T10:38:54.164Z,7.10
2018-02-03T10:39:55.243Z,7.10
2018-02-03T10:40:56.324Z,7.10
2018-02-03T10:41:57.412Z,7.10
2018-02-03T10:42:58.522Z,7.00
2018-02-03T10:43:59.620Z,6.90
2018-02-03T10:45:00.706Z,6.90
2018-02-03T10:46:01.828Z,6.80
2018-02-03T10:47:02.934Z,6.80
2018-02-03T10:48:04.051Z,6.90
2018-02-03T10:49:05.892Z,6.80
2018-02-03T10:50:07.725Z,6.90
2018-02-03T10:51:08.818Z,6.90
2018-02-03T10:52:09.914Z,6.90
2018-02-03T10:53:11.010Z,6.90
2018-02-03T10:54:12.091Z,6.90
2018-02-03T10:55:13.175Z,6.90
2018-02-03T10:56:14.266Z,6.90
2018-02-03T10:57:15.375Z,6.80
2018-02-03T10:58:17.219Z,6.80
2018-02-03T10:59:18.304Z,6.80
2018-02-03T11:00:19.439Z,6.80
2018-02-03T11:01:20.567Z,6.80
2018-02-03T11:02:21.678Z,6.80
2018-02-03T11:03:22.778Z,6.70
2018-02-03T11:04:24.627Z,6.70
2018-02-03T11:05:25.720Z,6.70
2018-02-03T11:06:26.815Z,6.70
2018-02-03T11:07:27.903Z,6.80
2018-02-03T11:08:28.986Z,6.80
2018-02-03T11:09:30.110Z,6.70
2018-02-03T11:10:31.247Z,6.70
2018-02-03T11:11:32.367Z,6.70
2018-02-03T11:12:34.263Z,6.60
2018-02-03T11:13:35.395Z,6.60
2018-02-03T11:14:36.506Z,6.60
2018-02-03T11:15:37.619Z,6.50
2018-02-03T11:16:38.804Z,6.50
2018-02-03T11:17:39.956Z,6.60
2018-02-03T11:18:41.076Z,6.50
2018-02-03T11:19:42.212Z,6.50
2018-02-03T11:20:43.357Z,6.50
2018-02-03T11:21:44.467Z,6.50
2018-02-03T11:22:45.587Z,6.50
2018-02-03T11:23:46.699Z,6.60
2018-02-03T11:24:47.809Z,6.40
2018-02-03T11:25:49.661Z,6.50
2018-02-03T11:26:50.772Z,6.50
2018-02-03T11:27:51.892Z,6.60
2018-02-03T11:28:53.003Z,6.70
2018-02-03T11:29:54.105Z,6.50
2018-02-03T11:30:55.207Z,6.50
2018-02-03T11:31:56.316Z,6.60
2018-02-03T11:32:57.411Z,6.60
2018-02-03T11:33:58.516Z,6.60
2018-02-03T11:34:59.631Z,6.60
2018-02-03T11:36:00.743Z,6.70
2018-02-03T11:37:01.855Z,6.70
2018-02-03T11:38:02.978Z,6.70
2018-02-03T11:39:04.234Z,6.60
2018-02-03T11:40:05.404Z,6.60
2018-02-03T11:41:06.580Z,6.70
2018-02-03T11:42:08.211Z,6.70
2018-02-03T11:43:10.084Z,6.70
2018-02-03T11:44:11.213Z,6.70
2018-02-03T11:45:12.435Z,6.80
2018-02-03T11:46:13.576Z,6.80
2018-02-03T11:47:14.689Z,6.90
2018-02-03T11:48:16.522Z,6.90
2018-02-03T11:49:17.679Z,6.90
2018-02-03T11:50:19.536Z,6.90
2018-02-03T11:51:20.670Z,6.90
2018-02-03T11:52:21.804Z,6.90
2018-02-03T11:53:22.914Z,6.90
2018-02-03T11:54:24.024Z,6.90
2018-02-03T11:55:25.225Z,6.90
2018-02-03T11:56:26.412Z,6.90
2018-02-03T11:57:27.576Z,6.80
2018-02-03T11:58:29.456Z,6.90
2018-02-03T11:59:30.605Z,6.90
2018-02-03T12:00:31.725Z,6.90
2018-02-03T12:01:32.877Z,6.90
2018-02-03T12:02:33.972Z,6.90
2018-02-03T12:03:36.501Z,6.90
2018-02-03T12:04:39.197Z,6.90
2018-02-03T12:05:41.695Z,6.90
2018-02-03T12:06:43.155Z,6.90
2018-02-03T12:07:45.540Z,6.80
2018-02-03T12:08:51.058Z,6.70
2018-02-03T12:09:52.542Z,6.90
2018-02-03T12:10:54.975Z,6.80
2018-02-03T12:11:56.433Z,6.90
2018-02-03T12:12:58.297Z,6.90
2018-02-03T12:13:59.445Z,6.90
2018-02-03T12:15:00.552Z,6.90
2018-02-03T12:16:02.515Z,6.90
2018-02-03T12:17:03.640Z,6.90
2018-02-03T12:18:04.787Z,6.90
2018-02-03T12:19:05.951Z,6.90
2018-02-03T12:20:07.199Z,6.80
2018-02-03T12:21:08.354Z,6.90
2018-02-03T12:22:09.508Z,6.90
2018-02-03T12:23:10.675Z,6.90
2018-02-03T12:24:11.815Z,6.90
2018-02-03T12:25:12.949Z,6.90
2018-02-03T12:26:14.098Z,7.00
2018-02-03T12:27:15.241Z,7.00
2018-02-03T12:28:16.355Z,7.10
2018-02-03T12:29:17.512Z,7.10
2018-02-03T12:30:18.653Z,7.30
2018-02-03T12:31:19.772Z,7.20
2018-02-03T12:32:20.933Z,7.30
2018-02-03T12:33:22.787Z,7.30
2018-02-03T12:34:23.992Z,7.30
2018-02-03T12:35:25.112Z,7.40
2018-02-03T12:36:26.269Z,7.20
2018-02-03T12:37:27.386Z,7.50
2018-02-03T12:38:28.524Z,7.50
2018-02-03T12:39:29.670Z,7.50
2018-02-03T12:40:30.805Z,7.50
2018-02-03T12:41:31.947Z,7.60
2018-02-03T12:42:33.073Z,7.60
2018-02-03T12:43:34.210Z,7.70
2018-02-03T12:44:35.364Z,7.70
2018-02-03T12:45:36.500Z,7.70
2018-02-03T12:46:38.381Z,7.70
2018-02-03T12:47:39.531Z,7.70
2018-02-03T12:48:40.691Z,7.70
2018-02-03T12:49:41.823Z,7.80
2018-02-03T12:50:42.958Z,7.70
2018-02-03T12:51:44.092Z,7.80
2018-02-03T12:52:45.223Z,7.70
2018-02-03T12:53:46.352Z,7.50
2018-02-03T12:54:47.491Z,7.60
2018-02-03T12:55:48.730Z,7.60
2018-02-03T12:56:49.831Z,7.60
2018-02-03T12:57:50.987Z,7.60
2018-02-03T12:58:52.118Z,7.60
2018-02-03T12:59:53.250Z,7.60
2018-02-03T13:00:54.396Z,7.60
2018-02-03T13:01:55.531Z,7.60
2018-02-03T13:02:56.657Z,7.60
2018-02-03T13:03:57.789Z,7.60
2018-02-03T13:04:58.937Z,7.60
2018-02-03T13:06:00.068Z,7.60
2018-02-03T13:07:01.191Z,7.60
2018-02-03T13:08:02.359Z,7.60
2018-02-03T13:09:04.339Z,7.60
2018-02-03T13:10:05.418Z,7.60
2018-02-03T13:11:06.599Z,7.50
2018-02-03T13:12:07.748Z,7.50
2018-02-03T13:13:08.868Z,7.50
2018-02-03T13:14:10.035Z,7.40
2018-02-03T13:15:11.238Z,7.50
2018-02-03T13:16:12.413Z,7.40
2018-02-03T13:17:13.548Z,7.50
2018-02-03T13:18:14.724Z,7.50
2018-02-03T13:19:15.884Z,7.50
2018-02-03T13:20:17.027Z,7.50
2018-02-03T13:21:18.165Z,7.50
2018-02-03T13:22:19.281Z,7.50
2018-02-03T13:23:20.540Z,7.50
2018-02-03T13:24:21.699Z,7.60
2018-02-03T13:25:22.861Z,7.50
2018-02-03T13:26:24.011Z,7.50
2018-02-03T13:27:25.162Z,7.60
2018-02-03T13:28:26.308Z,7.60
2018-02-03T13:29:27.452Z,7.80
2018-02-03T13:30:28.650Z,7.70
2018-02-03T13:31:29.759Z,7.70
2018-02-03T13:32:31.639Z,7.70
2018-02-03T13:33:32.809Z,7.70
2018-02-03T13:34:33.943Z,7.80
2018-02-03T13:35:35.096Z,7.80